Time;durP1;ratioP1;P1;durP2;ratioP2;P2;SDS_P1;SDS_P2;PMS_P1;PMS_P2;Temp;Humidity;BMP_temperature;BMP_pressure;BME280_temperature;BME280_humidity;BME280_pressure;Samples;Min_cycle;Max_cycle;Signal;HPM_P1;HPM_P2
2021/03/29 00:00:10;;;;;;;127.47;64.65;;;9.10;72.20;;;;;;5092798;28;20024;-68
2021/03/29 00:02:36;;;;;;;126.28;66.28;;;9.10;73.80;;;;;;5092520;28;20028;-67
2021/03/29 00:05:03;;;;;;;122.90;64.53;;;9.00;74.80;;;;;;5094305;28;20047;-67
2021/03/29 00:07:30;;;;;;;135.95;71.18;;;9.00;76.00;;;;;;5092556;28;20024;-69
2021/03/29 00:09:57;;;;;;;142.20;72.95;;;8.90;76.30;;;;;;5093930;28;20028;-69
2021/03/29 00:12:24;;;;;;;131.75;64.95;;;8.80;75.50;;;;;;5093181;28;20475;-69
2021/03/29 00:14:52;;;;;;;126.18;64.25;;;8.70;74.70;;;;;;5092427;28;20103;-69
2021/03/29 00:17:20;;;;;;;128.77;64.07;;;8.70;75.90;;;;;;5093853;28;20031;-70
2021/03/29 00:19:47;;;;;;;112.55;58.53;;;8.60;76.00;;;;;;5093733;28;20028;-69
2021/03/29 00:22:13;;;;;;;111.10;57.35;;;;;;;;;;5093591;28;20027;-68
2021/03/29 00:24:40;;;;;;;117.65;59.65;;;8.20;76.40;;;;;;5093689;28;20048;-68
2021/03/29 00:27:07;;;;;;;109.15;55.47;;;8.10;78.00;;;;;;5092258;28;20032;-68
2021/03/29 00:29:33;;;;;;;115.05;56.65;;;8.10;78.10;;;;;;5093656;28;20497;-69
2021/03/29 00:32:00;;;;;;;117.00;60.47;;;8.00;78.30;;;;;;5092199;28;20460;-68
2021/03/29 00:34:26;;;;;;;118.18;59.72;;;8.00;80.80;;;;;;5093267;28;20499;-68
2021/03/29 00:36:53;;;;;;;104.63;53.35;;;7.90;81.50;;;;;;5093458;28;20032;-69
2021/03/29 00:39:20;;;;;;;107.68;52.75;;;7.90;81.40;;;;;;5093534;28;20020;-68
2021/03/29 00:41:47;;;;;;;93.50;48.67;;;7.90;81.30;;;;;;5092088;28;20020;-70
2021/03/29 00:44:15;;;;;;;89.15;45.53;;;7.90;80.60;;;;;;5093316;28;20070;-68
2021/03/29 00:46:42;;;;;;;114.07;60.08;;;7.90;80.70;;;;;;5093265;28;20479;-67
2021/03/29 00:49:08;;;;;;;113.65;57.42;;;7.90;79.70;;;;;;5092030;28;20035;-68
2021/03/29 00:51:36;;;;;;;117.30;60.05;;;7.90;79.10;;;;;;5092009;28;20020;-69
2021/03/29 00:54:04;;;;;;;113.05;56.10;;;7.80;81.70;;;;;;5091918;28;20077;-67
2021/03/29 00:56:32;;;;;;;119.30;62.10;;;7.70;86.30;;;;;;5093190;28;20410;-69
2021/03/29 00:59:00;;;;;;;121.65;62.13;;;7.70;83.20;;;;;;5091942;28;20077;-70
2021/03/29 01:01:47;;;;;;;120.90;62.50;;;7.60;82.40;;;;;;5092899;28;20020;-69
2021/03/29 01:04:15;;;;;;;120.10;59.30;;;7.50;84.80;;;;;;5092853;28;20096;-69
2021/03/29 01:06:44;;;;;;;108.82;54.97;;;7.50;84.00;;;;;;5093154;28;20035;-69
2021/03/29 01:09:19;;;;;;;103.53;54.10;;;7.40;83.80;;;;;;5093185;28;20028;-69
2021/03/29 01:11:53;;;;;;;103.40;52.83;;;7.30;83.20;;;;;;5093152;28;20154;-69
2021/03/29 01:14:48;;;;;;;132.27;60.30;;;7.30;83.60;;;;;;5091802;28;20138;-68
2021/03/29 01:17:31;;;;;;;165.65;68.80;;;7.20;84.60;;;;;;5087671;28;20082;-69
2021/03/29 01:20:03;;;;;;;144.82;64.65;;;7.10;85.50;;;;;;5093059;28;20052;-69
2021/03/29 01:22:51;;;;;;;145.68;62.17;;;7.10;87.60;;;;;;5092992;28;20036;-69
2021/03/29 01:25:25;;;;;;;137.18;61.03;;;7.10;88.60;;;;;;5094599;28;20044;-68
2021/03/29 01:28:07;;;;;;;117.32;56.47;;;7.10;87.80;;;;;;5095776;28;20028;-67
2021/03/29 01:30:35;;;;;;;104.28;54.88;;;7.10;85.60;;;;;;5097025;28;20020;-68
2021/03/29 01:33:02;;;;;;;111.78;54.83;;;7.10;85.00;;;;;;5097005;28;20067;-69
2021/03/29 01:35:28;;;;;;;102.07;54.88;;;7.10;85.60;;;;;;5096644;28;20031;-68
2021/03/29 01:37:55;;;;;;;115.35;57.67;;;7.00;85.50;;;;;;5096550;28;20531;-69
2021/03/29 01:40:22;;;;;;;113.43;57.50;;;7.00;85.30;;;;;;5096886;28;20024;-69
2021/03/29 01:42:49;;;;;;;101.35;52.38;;;7.00;84.80;;;;;;5096956;28;20020;-70
2021/03/29 01:45:17;;;;;;;107.07;57.22;;;7.00;84.30;;;;;;5096728;28;20096;-69
2021/03/29 01:47:43;;;;;;;107.75;54.63;;;6.90;85.20;;;;;;5095368;28;20047;-69
2021/03/29 01:50:12;;;;;;;99.53;52.33;;;6.90;85.70;;;;;;5096761;28;20020;-68
2021/03/29 01:52:38;;;;;;;94.95;50.00;;;6.80;86.70;;;;;;5096586;28;20059;-69
2021/03/29 01:55:07;;;;;;;101.72;50.10;;;6.80;87.40;;;;;;5095156;28;20024;-69
2021/03/29 01:57:34;;;;;;;101.60;54.72;;;6.70;87.70;;;;;;5096367;28;20074;-69
2021/03/29 02:00:01;;;;;;;114.18;55.85;;;6.60;88.60;;;;;;5095443;28;20418;-71
2021/03/29 02:02:27;;;;;;;114.97;56.05;;;6.60;89.10;;;;;;5096329;28;20017;-68
2021/03/29 02:04:54;;;;;;;113.10;54.00;;;6.50;88.70;;;;;;5096333;28;20418;-68
2021/03/29 02:07:21;;;;;;;111.75;53.65;;;6.50;89.20;;;;;;5096307;28;20081;-69
2021/03/29 02:09:48;;;;;;;100.50;49.28;;;6.50;89.50;;;;;;5096595;28;20108;-69
2021/03/29 02:12:15;;;;;;;91.43;49.80;;;6.50;87.70;;;;;;5095987;28;20060;-69
2021/03/29 02:14:41;;;;;;;82.82;44.63;;;6.50;86.40;;;;;;5096228;28;20032;-68
2021/03/29 02:17:09;;;;;;;88.72;45.25;;;6.40;86.40;;;;;;5094758;28;20119;-69
2021/03/29 02:19:36;;;;;;;88.95;44.38;;;6.40;85.00;;;;;;5094732;28;20031;-71
2021/03/29 02:22:02;;;;;;;84.28;46.92;;;6.40;85.20;;;;;;5096246;28;20039;-68
2021/03/29 02:24:30;;;;;;;80.22;43.78;;;6.30;86.10;;;;;;5095931;28;20028;-68
2021/03/29 02:26:58;;;;;;;81.05;43.47;;;6.20;87.30;;;;;;5095585;28;20063;-70
2021/03/29 02:29:28;;;;;;;78.75;41.92;;;6.20;88.30;;;;;;5094603;28;20079;-71
2021/03/29 02:31:58;;;;;;;80.15;41.53;;;6.30;88.00;;;;;;5096037;28;20376;-69
2021/03/29 02:34:25;;;;;;;80.22;42.00;;;6.30;87.80;;;;;;5095812;28;20043;-69
2021/03/29 02:36:52;;;;;;;76.55;40.90;;;6.20;88.60;;;;;;5093941;28;20024;-70
2021/03/29 02:39:21;;;;;;;76.75;39.35;;;6.10;89.30;;;;;;5095718;28;20077;-68
2021/03/29 02:41:49;;;;;;;69.75;37.22;;;6.10;90.10;;;;;;5095641;28;20055;-69
2021/03/29 02:44:16;;;;;;;66.55;33.72;;;6.10;90.20;;;;;;5094269;28;20388;-68
2021/03/29 02:46:43;;;;;;;72.63;36.50;;;6.10;89.30;;;;;;5095542;28;20028;-70
2021/03/29 02:49:10;;;;;;;67.45;35.90;;;6.20;89.60;;;;;;5095584;28;20078;-70
2021/03/29 02:51:42;;;;;;;72.97;37.22;;;6.10;90.10;;;;;;5095226;28;20110;-70
2021/03/29 02:54:10;;;;;;;64.63;36.08;;;6.00;90.60;;;;;;5095805;28;20028;-68
2021/03/29 02:56:42;;;;;;;70.18;37.60;;;5.90;91.10;;;;;;5095394;28;20107;-69
2021/03/29 02:59:14;;;;;;;74.47;37.90;;;5.90;91.70;;;;;;5095692;28;20027;-70
2021/03/29 03:01:41;;;;;;;79.30;38.05;;;5.80;91.50;;;;;;5094043;28;20078;-70
2021/03/29 03:04:09;;;;;;;67.93;36.35;;;5.80;90.70;;;;;;5095201;28;20047;-70
2021/03/29 03:06:36;;;;;;;75.38;37.55;;;5.70;91.00;;;;;;5095187;28;20035;-70
2021/03/29 03:09:05;;;;;;;71.85;37.35;;;5.60;91.30;;;;;;5093767;28;20028;-68
2021/03/29 03:11:33;;;;;;;70.75;36.17;;;5.40;91.10;;;;;;5093775;28;20379;-68
2021/03/29 03:14:03;;;;;;;78.10;35.50;;;5.40;91.30;;;;;;5095017;28;20078;-70
2021/03/29 03:16:30;;;;;;;70.18;35.05;;;5.40;91.50;;;;;;5093633;28;20053;-67
2021/03/29 03:18:56;;;;;;;69.90;35.45;;;5.40;91.90;;;;;;5095006;28;20035;-69
2021/03/29 03:21:22;;;;;;;73.45;34.53;;;5.50;92.10;;;;;;5093492;28;20073;-70
2021/03/29 03:23:56;;;;;;;62.35;32.00;;;5.50;92.00;;;;;;5093361;28;20032;-69
2021/03/29 03:26:24;;;;;;;70.95;35.72;;;5.50;91.80;;;;;;5094478;28;20498;-71
2021/03/29 03:28:51;;;;;;;67.40;34.80;;;5.50;91.90;;;;;;5094686;28;20016;-69
2021/03/29 03:31:17;;;;;;;75.43;35.35;;;5.40;91.80;;;;;;5093112;28;20059;-70
2021/03/29 03:33:43;;;;;;;65.70;34.10;;;5.30;91.70;;;;;;5094674;28;20439;-70
2021/03/29 03:36:10;;;;;;;71.97;34.75;;;5.20;92.40;;;;;;5094592;28;20193;-69
2021/03/29 03:38:40;;;;;;;71.10;32.97;;;5.20;92.40;;;;;;5094542;28;20052;-71
2021/03/29 03:41:15;;;;;;;75.70;33.67;;;5.20;92.80;;;;;;5093247;28;20114;-68
2021/03/29 03:43:48;;;;;;;68.95;34.55;;;5.10;92.90;;;;;;5094170;28;20057;-69
2021/03/29 03:46:36;;;;;;;80.20;38.83;;;5.10;92.90;;;;;;5093012;28;20497;-69
2021/03/29 03:49:09;;;;;;;79.50;39.17;;;5.00;93.10;;;;;;5094325;28;20032;-71
2021/03/29 03:51:36;;;;;;;64.78;32.45;;;5.00;93.30;;;;;;5094697;28;20035;-71
2021/03/29 03:54:02;;;;;;;64.88;30.92;;;5.10;93.10;;;;;;5094250;28;20036;-71
2021/03/29 03:56:34;;;;;;;62.22;31.25;;;5.20;92.90;;;;;;5094192;28;20024;-72
2021/03/29 03:59:03;;;;;;;67.10;32.15;;;5.20;92.30;;;;;;5094200;28;20076;-70
2021/03/29 04:01:40;;;;;;;61.92;31.35;;;5.10;92.30;;;;;;5094169;28;20146;-68
2021/03/29 04:04:06;;;;;;;59.20;29.13;;;5.00;91.70;;;;;;5094058;28;20035;-68
2021/03/29 04:06:32;;;;;;;65.28;31.30;;;5.00;91.80;;;;;;5092729;28;20093;-69
2021/03/29 04:08:58;;;;;;;65.95;29.90;;;5.00;92.10;;;;;;5093974;28;20407;-70
2021/03/29 04:11:27;;;;;;;77.35;31.92;;;5.00;92.20;;;;;;5092681;28;20024;-69
2021/03/29 04:13:53;;;;;;;69.15;31.20;;;5.00;92.40;;;;;;5093932;28;20047;-69
2021/03/29 04:16:18;;;;;;;64.47;29.27;;;4.90;92.40;;;;;;5092429;28;20111;-68
2021/03/29 04:18:44;;;;;;;67.28;31.33;;;4.90;92.30;;;;;;5093858;28;20024;-72
2021/03/29 04:21:11;;;;;;;66.22;31.90;;;4.80;92.60;;;;;;5094010;28;20046;-71
2021/03/29 04:23:37;;;;;;;76.00;30.75;;;4.90;92.10;;;;;;5092327;28;20031;-69
2021/03/29 04:26:02;;;;;;;69.72;32.25;;;4.90;91.90;;;;;;5093686;28;20028;-70
2021/03/29 04:28:28;;;;;;;77.05;33.63;;;4.90;91.90;;;;;;5093583;28;20028;-69
2021/03/29 04:30:54;;;;;;;76.13;32.70;;;4.90;92.00;;;;;;5093324;28;20379;-69
2021/03/29 04:33:22;;;;;;;77.47;30.73;;;4.90;92.10;;;;;;5093602;28;20032;-71
2021/03/29 04:35:48;;;;;;;79.10;32.67;;;4.90;91.60;;;;;;5093496;28;20077;-69
2021/03/29 04:38:14;;;;;;;73.57;30.90;;;5.00;91.40;;;;;;5093227;28;20023;-71
2021/03/29 04:40:40;;;;;;;60.78;30.42;;;5.00;91.00;;;;;;5093789;28;20495;-70
2021/03/29 04:43:05;;;;;;;75.78;33.67;;;4.90;91.30;;;;;;5092015;28;20024;-70
2021/03/29 04:45:31;;;;;;;59.22;31.48;;;5.00;91.30;;;;;;5092007;28;20472;-71
2021/03/29 04:47:57;;;;;;;79.97;31.75;;;5.00;91.40;;;;;;5093285;28;20027;-71
2021/03/29 04:50:24;;;;;;;86.25;37.90;;;5.00;90.80;;;;;;5093305;28;20061;-71
2021/03/29 04:52:51;;;;;;;85.88;38.63;;;5.00;91.70;;;;;;5091994;28;20114;-70
2021/03/29 04:55:17;;;;;;;75.45;42.28;;;4.90;92.20;;;;;;5092899;28;20499;-70
2021/03/29 04:57:44;;;;;;;80.13;38.70;;;5.00;92.30;;;;;;5091924;28;20119;-70
2021/03/29 05:00:11;;;;;;;82.75;42.47;;;5.00;92.50;;;;;;5092800;28;20085;-69
2021/03/29 05:02:37;;;;;;;84.95;41.25;;;5.00;92.70;;;;;;5093037;28;20031;-69
2021/03/29 05:05:04;;;;;;;89.22;45.20;;;5.00;92.90;;;;;;5093176;28;20028;-70
2021/03/29 05:07:30;;;;;;;94.60;46.33;;;5.10;93.00;;;;;;5092727;28;20035;-70
2021/03/29 05:09:56;;;;;;;84.68;41.03;;;5.10;92.80;;;;;;5091795;28;20375;-70
2021/03/29 05:12:23;;;;;;;90.88;39.38;;;5.10;93.10;;;;;;5092904;28;20502;-69
2021/03/29 05:14:50;;;;;;;89.43;42.42;;;5.20;93.00;;;;;;5091825;28;20097;-68
2021/03/29 05:17:17;;;;;;;92.03;41.28;;;5.20;92.80;;;;;;5092989;28;20077;-69
2021/03/29 05:19:43;;;;;;;82.75;40.10;;;5.30;92.20;;;;;;5093031;28;20032;-69
2021/03/29 05:22:09;;;;;;;86.38;42.05;;;5.40;91.90;;;;;;5091713;28;20115;-70
2021/03/29 05:24:35;;;;;;;119.22;48.45;;;5.50;91.90;;;;;;5091477;28;20028;-70
2021/03/29 05:27:01;;;;;;;95.90;48.08;;;5.60;91.70;;;;;;5091538;28;20032;-69
2021/03/29 05:29:27;;;;;;;98.75;53.38;;;5.70;91.20;;;;;;5093018;28;20028;-72
2021/03/29 05:31:57;;;;;;;89.78;48.83;;;5.70;91.10;;;;;;5092791;28;20028;-72
2021/03/29 05:34:24;;;;;;;116.85;49.88;;;5.70;91.70;;;;;;5090928;28;20028;-70
2021/03/29 05:36:51;;;;;;;111.18;50.03;;;5.80;91.90;;;;;;5092612;28;20457;-69
2021/03/29 05:39:17;;;;;;;109.53;52.88;;;5.90;91.60;;;;;;5092822;28;20025;-71
2021/03/29 05:41:43;;;;;;;111.35;55.05;;;6.00;91.00;;;;;;5092742;28;20028;-72
2021/03/29 05:44:11;;;;;;;118.43;52.40;;;6.00;91.20;;;;;;5091387;28;20039;-70
2021/03/29 05:46:46;;;;;;;116.15;54.53;;;6.10;91.50;;;;;;5092699;28;20032;-71
2021/03/29 05:49:12;;;;;;;130.57;57.35;;;6.30;90.90;;;;;;5075010;28;20484;-68
2021/03/29 05:51:39;;;;;;;114.65;59.03;;;6.40;90.70;;;;;;5080043;28;20036;-70
2021/03/29 05:54:07;;;;;;;119.63;60.53;;;6.50;90.40;;;;;;5072735;28;20044;-70
2021/03/29 05:59:55;;;;;;;100.18;46.33;;;6.80;91.40;;;;;;5069768;28;20055;-70
2021/03/29 06:02:30;;;;;;;89.50;43.10;;;7.00;89.90;;;;;;5054207;28;20453;-69
2021/03/29 06:04:57;;;;;;;93.40;39.55;;;7.10;90.30;;;;;;5072388;28;20043;-66
2021/03/29 06:07:31;;;;;;;77.85;39.20;;;7.30;88.90;;;;;;5072272;28;20099;-70
2021/03/29 06:10:09;;;;;;;87.40;43.72;;;7.40;84.90;;;;;;5054123;28;20087;-68
2021/03/29 06:12:46;;;;;;;97.90;49.78;;;7.50;83.10;;;;;;5059869;28;20079;-71
2021/03/29 06:15:13;;;;;;;102.30;51.13;;;7.60;84.80;;;;;;5074348;28;20388;-68
2021/03/29 06:17:39;;;;;;;108.57;53.25;;;7.70;89.20;;;;;;5074396;28;20451;-68
2021/03/29 06:20:07;;;;;;;118.22;59.30;;;7.80;90.00;;;;;;5075037;28;20024;-72
2021/03/29 06:22:35;;;;;;;119.00;58.75;;;7.90;87.70;;;;;;5074062;28;20024;-69
2021/03/29 06:25:19;;;;;;;199.82;73.60;;;8.00;90.00;;;;;;5075620;28;20027;-71
2021/03/29 06:27:51;;;;;;;200.07;79.45;;;8.10;89.30;;;;;;5074337;28;20028;-71
2021/03/29 06:30:29;;;;;;;131.90;63.17;;;8.20;89.50;;;;;;5075675;28;20441;-70
2021/03/29 06:33:08;;;;;;;123.80;61.58;;;8.30;88.40;;;;;;5074204;28;20155;-69
2021/03/29 06:35:43;;;;;;;116.95;53.75;;;8.30;87.20;;;;;;5075527;28;20032;-70
2021/03/29 06:38:15;;;;;;;96.15;52.08;;;8.50;87.00;;;;;;5075550;28;20024;-71
2021/03/29 06:41:01;;;;;;;118.68;53.80;;;8.50;85.60;;;;;;5074006;28;20025;-69
2021/03/29 06:43:31;;;;;;;96.05;46.90;;;8.60;84.40;;;;;;5073970;28;20032;-72
2021/03/29 06:46:06;;;;;;;102.45;51.17;;;8.70;83.10;;;;;;5075243;28;20036;-69
2021/03/29 06:48:36;;;;;;;109.60;54.95;;;8.80;84.00;;;;;;5073891;28;20021;-70
2021/03/29 06:51:19;;;;;;;101.57;50.88;;;8.80;85.90;;;;;;5075211;28;20032;-70
2021/03/29 06:54:02;;;;;;;112.88;52.40;;;9.00;82.00;;;;;;5075084;28;20035;-72
2021/03/29 06:56:39;;;;;;;112.15;55.78;;;9.20;84.90;;;;;;5073587;28;20119;-69
2021/03/29 06:59:05;;;;;;;99.45;55.58;;;9.20;83.30;;;;;;5074826;28;20028;-69
2021/03/29 07:01:36;;;;;;;75.32;42.03;;;9.30;80.50;;;;;;5075025;28;20495;-68
2021/03/29 07:04:05;;;;;;;86.40;44.13;;;9.40;77.00;;;;;;5074839;28;20028;-69
2021/03/29 07:06:34;;;;;;;75.60;40.85;;;9.60;80.70;;;;;;5074615;28;20435;-68
2021/03/29 07:09:06;;;;;;;55.05;29.13;;;9.90;84.90;;;;;;5076258;28;20075;-69
2021/03/29 07:11:37;;;;;;;60.72;31.98;;;10.00;75.70;;;;;;5095045;28;20024;-71
2021/03/29 07:14:04;;;;;;;63.85;33.15;;;10.10;74.30;;;;;;5093366;28;20414;-69
2021/03/29 07:16:31;;;;;;;52.58;29.63;;;10.30;75.20;;;;;;5093488;28;20162;-70
2021/03/29 07:19:04;;;;;;;50.53;30.35;;;10.50;77.70;;;;;;5094746;28;20345;-68
2021/03/29 07:21:31;;;;;;;57.05;29.63;;;10.70;79.10;;;;;;5094770;28;20020;-70
2021/03/29 07:24:07;;;;;;;54.55;30.75;;;10.90;74.30;;;;;;5093889;28;20032;-70
2021/03/29 07:26:38;;;;;;;57.22;29.52;;;11.00;70.70;;;;;;5074367;28;20477;-67
2021/03/29 07:29:28;;;;;;;55.33;29.13;;;11.20;74.40;;;;;;5074330;28;20032;-70
2021/03/29 07:31:56;;;;;;;50.72;27.83;;;11.50;73.00;;;;;;5067723;28;20032;-70
2021/03/29 07:34:48;;;;;;;49.67;26.85;;;11.60;69.40;;;;;;5074065;28;20036;-69
2021/03/29 07:37:34;;;;;;;42.35;24.02;;;11.80;67.90;;;;;;5074353;28;20031;-66
2021/03/29 07:40:21;;;;;;;42.47;24.48;;;11.90;63.10;;;;;;5074148;28;20074;-67
2021/03/29 07:42:51;;;;;;;48.30;25.15;;;12.20;65.10;;;;;;5052256;28;20109;-70
2021/03/29 07:45:25;;;;;;;48.28;25.92;;;12.30;61.00;;;;;;5072638;28;20032;-67
2021/03/29 07:47:57;;;;;;;43.78;25.05;;;12.50;60.00;;;;;;5072659;28;20032;-68
2021/03/29 07:50:25;;;;;;;47.30;25.02;;;12.70;60.40;;;;;;5073789;28;20032;-71
2021/03/29 07:52:55;;;;;;;47.15;25.35;;;12.90;59.30;;;;;;5073829;28;20385;-69
2021/03/29 07:55:29;;;;;;;41.55;22.52;;;13.00;60.30;;;;;;5073530;28;20029;-69
2021/03/29 07:58:05;;;;;;;42.28;20.42;;;13.20;60.00;;;;;;5072468;28;20170;-68
2021/03/29 08:00:31;;;;;;;38.88;20.75;;;13.40;56.10;;;;;;5073657;28;20021;-70
2021/03/29 08:03:18;;;;;;;41.85;21.83;;;13.50;56.40;;;;;;5072251;28;20029;-68
2021/03/29 08:05:47;;;;;;;40.97;21.05;;;13.70;54.20;;;;;;5052083;28;20066;-68
2021/03/29 08:08:25;;;;;;;33.97;19.55;;;13.80;56.00;;;;;;5072154;28;20032;-69
2021/03/29 08:11:14;;;;;;;22.25;13.57;;;14.00;55.80;;;;;;5073577;28;20027;-69
2021/03/29 08:13:57;;;;;;;25.77;14.43;;;14.20;53.60;;;;;;5073022;28;20080;-68
2021/03/29 08:16:28;;;;;;;26.75;15.10;;;14.30;52.60;;;;;;5073203;28;20100;-70
2021/03/29 08:19:11;;;;;;;25.52;13.23;;;14.50;52.10;;;;;;5072079;28;20028;-68
2021/03/29 08:21:56;;;;;;;15.15;8.25;;;14.70;49.90;;;;;;5073447;28;20522;-69
2021/03/29 08:24:23;;;;;;;16.45;7.90;;;14.70;47.60;;;;;;5073310;28;20040;-69
2021/03/29 08:26:51;;;;;;;26.85;11.25;;;14.80;50.00;;;;;;5073318;28;20036;-70
2021/03/29 08:29:30;;;;;;;25.73;14.23;;;15.00;48.10;;;;;;5073255;28;20024;-69
2021/03/29 08:32:10;;;;;;;19.65;10.60;;;15.00;50.20;;;;;;5086029;28;20031;-70
2021/03/29 08:34:49;;;;;;;22.13;8.77;;;15.30;47.80;;;;;;5092579;28;20097;-70
2021/03/29 08:37:28;;;;;;;18.58;9.18;;;15.50;48.10;;;;;;5091099;28;20024;-71
2021/03/29 08:40:01;;;;;;;21.73;10.40;;;15.80;47.30;;;;;;5092734;28;20031;-70
2021/03/29 08:42:30;;;;;;;21.35;10.68;;;15.90;45.40;;;;;;5075887;28;20415;-70
2021/03/29 08:44:57;;;;;;;19.10;10.60;;;16.10;48.00;;;;;;5072418;28;20493;-70
2021/03/29 08:47:25;;;;;;;15.75;9.45;;;16.20;45.50;;;;;;5072944;28;20473;-70
2021/03/29 08:49:54;;;;;;;12.65;6.75;;;16.20;43.90;;;;;;5072584;28;20024;-69
2021/03/29 08:52:21;;;;;;;15.57;7.50;;;16.30;45.60;;;;;;5072750;28;20020;-73
2021/03/29 08:54:56;;;;;;;18.27;7.93;;;16.40;44.10;;;;;;5071437;28;20024;-72
2021/03/29 08:57:28;;;;;;;18.60;10.43;;;16.30;43.20;;;;;;5072796;28;20082;-70
2021/03/29 08:59:59;;;;;;;23.92;9.32;;;16.50;43.50;;;;;;5071075;28;20544;-71
2021/03/29 09:02:26;;;;;;;21.48;9.77;;;16.70;44.70;;;;;;5072565;28;20068;-70
2021/03/29 09:04:58;;;;;;;14.65;8.38;;;17.00;45.00;;;;;;5071247;28;20575;-70
2021/03/29 09:07:33;;;;;;;17.27;7.78;;;17.00;43.40;;;;;;5072461;28;20028;-73
2021/03/29 09:10:00;;;;;;;13.65;7.53;;;17.00;41.40;;;;;;5072109;28;20446;-70
2021/03/29 09:12:55;;;;;;;15.02;7.45;;;17.20;42.60;;;;;;5076353;28;20054;-70
2021/03/29 09:15:22;;;;;;;29.75;15.05;;;17.40;43.20;;;;;;5111748;28;20108;-71
2021/03/29 09:18:18;;;;;;;15.98;8.35;;;17.50;43.90;;;;;;5112314;28;20042;-71
2021/03/29 09:20:47;;;;;;;15.02;8.18;;;17.80;42.70;;;;;;5094601;28;20055;-71
2021/03/29 09:23:15;;;;;;;12.73;7.28;;;18.00;41.80;;;;;;5092556;28;20194;-70
2021/03/29 09:25:47;;;;;;;12.32;7.57;;;18.10;41.80;;;;;;5091862;28;20429;-70
2021/03/29 09:31:09;;;;;;;13.85;7.03;;;18.30;39.90;;;;;;5091746;28;20031;-72
2021/03/29 09:33:35;;;;;;;12.18;7.22;;;18.60;42.00;;;;;;5090399;28;20039;-70
2021/03/29 09:36:12;;;;;;;16.75;7.68;;;18.90;41.70;;;;;;5082045;28;20561;-68
2021/03/29 09:38:39;;;;;;;14.80;6.75;;;19.10;42.60;;;;;;5084689;28;20059;-69
2021/03/29 09:41:24;;;;;;;10.60;6.18;;;19.30;40.00;;;;;;5092348;28;20487;-70
2021/03/29 09:43:54;;;;;;;13.23;7.15;;;19.40;40.60;;;;;;5091177;28;20480;-73
2021/03/29 09:46:31;;;;;;;14.25;6.97;;;19.30;40.80;;;;;;5094778;28;20050;-71
2021/03/29 09:49:08;;;;;;;17.80;6.82;;;19.30;39.00;;;;;;5094788;28;20077;-72
2021/03/29 09:51:35;;;;;;;12.05;5.82;;;19.70;39.00;;;;;;5095715;28;20410;-69
2021/03/29 09:54:19;;;;;;;12.05;6.72;;;19.90;39.30;;;;;;5094748;28;20042;-73
2021/03/29 09:56:45;;;;;;;11.63;7.10;;;20.10;41.50;;;;;;5096070;28;20028;-70
2021/03/29 09:59:11;;;;;;;14.02;7.85;;;20.30;39.80;;;;;;5094477;28;20106;-72
2021/03/29 10:01:43;;;;;;;13.85;7.20;;;20.20;37.40;;;;;;5095615;28;20490;-70
2021/03/29 10:04:14;;;;;;;12.68;6.88;;;20.20;39.90;;;;;;5094829;28;20028;-73
2021/03/29 10:06:51;;;;;;;16.27;7.15;;;20.30;40.90;;;;;;5094323;28;20447;-73
2021/03/29 10:09:32;;;;;;;9.75;5.05;;;20.10;39.80;;;;;;5094439;28;20032;-74
2021/03/29 10:11:59;;;;;;;9.75;4.82;;;20.20;38.10;;;;;;5095883;28;20028;-71
2021/03/29 10:14:38;;;;;;;9.43;4.95;;;20.10;36.80;;;;;;5095822;28;20044;-72
2021/03/29 10:17:16;;;;;;;7.75;4.28;;;19.90;37.00;;;;;;5096006;28;20034;-72
2021/03/29 10:19:42;;;;;;;9.70;4.85;;;20.30;36.40;;;;;;5095825;28;20107;-71
2021/03/29 10:22:14;;;;;;;10.73;6.80;;;20.50;35.60;;;;;;5095399;28;20028;-71
2021/03/29 10:25:01;;;;;;;11.32;4.68;;;20.80;37.00;;;;;;5095712;28;20081;-71
2021/03/29 10:27:53;;;;;;;8.68;4.70;;;20.80;35.80;;;;;;5095646;28;20062;-72
2021/03/29 10:30:19;;;;;;;10.82;5.43;;;21.30;37.30;;;;;;5094180;28;20024;-74
2021/03/29 10:32:56;;;;;;;8.85;5.15;;;22.20;36.80;;;;;;5095519;28;20031;-73
2021/03/29 10:35:25;;;;;;;10.68;4.85;;;22.50;32.90;;;;;;5095501;28;20032;-73
2021/03/29 10:37:51;;;;;;;8.48;4.57;;;23.20;35.60;;;;;;5095432;28;20020;-73
2021/03/29 10:40:18;;;;;;;9.15;5.30;;;;;;;;;;5094600;28;20024;-72
2021/03/29 10:42:44;;;;;;;8.25;4.80;;;;;;;;;;5093307;28;20107;-72
2021/03/29 10:45:12;;;;;;;12.43;4.57;;;;;;;;;;5094930;28;20037;-72
2021/03/29 10:47:39;;;;;;;18.77;7.78;;;;;;;;;;5095284;28;20024;-71
2021/03/29 10:50:06;;;;;;;24.85;10.02;;;;;;;;;;5094080;28;20074;-72
2021/03/29 10:52:33;;;;;;;13.05;6.63;;;;;;;;;;5095212;28;20491;-73
2021/03/29 10:54:59;;;;;;;38.05;9.05;;;;;;;;;;5094001;28;20034;-70
2021/03/29 10:57:25;;;;;;;8.82;5.00;;;;;;;;;;5093499;28;20026;-71
2021/03/29 10:59:52;;;;;;;35.33;5.25;;;;;;;;;;5092746;28;20785;-70
2021/03/29 11:02:18;;;;;;;8.63;4.60;;;;;;;;;;5094728;28;20499;-69
2021/03/29 11:04:44;;;;;;;8.38;5.40;;;;;;;;;;5094615;28;20050;-72
2021/03/29 11:07:10;;;;;;;12.57;6.35;;;;;;;;;;5094664;28;20495;-72
2021/03/29 11:09:37;;;;;;;9.90;5.57;;;;;;;;;;5093657;28;20083;-73
2021/03/29 11:12:03;;;;;;;23.05;11.05;;;;;;;;;;5094578;28;20416;-73
2021/03/29 11:14:29;;;;;;;8.32;5.60;;;;;;;;;;5093101;28;20040;-73
2021/03/29 11:16:56;;;;;;;11.38;6.20;;;;;;;;;;5093428;28;20028;-71
2021/03/29 11:19:23;;;;;;;32.95;9.15;;;;;;;;;;5094797;28;20066;-72
2021/03/29 11:21:50;;;;;;;20.50;6.88;;;;;;;;;;5093740;28;20437;-72
2021/03/29 11:24:16;;;;;;;10.73;6.35;;;;;;;;;;5094725;28;20110;-74
2021/03/29 11:26:43;;;;;;;11.52;5.80;;;;;;;;;;5093363;28;20115;-70
2021/03/29 11:29:09;;;;;;;9.02;5.82;;;31.30;26.20;;;;;;5093391;28;20028;-72
2021/03/29 11:31:40;;;;;;;10.02;6.43;;;31.00;26.70;;;;;;5075314;28;20074;-71
2021/03/29 11:34:06;;;;;;;9.02;6.40;;;31.60;26.20;;;;;;5072938;28;20082;-73
2021/03/29 11:36:32;;;;;;;13.20;6.43;;;31.20;25.80;;;;;;5074285;28;20056;-74
2021/03/29 11:38:58;;;;;;;15.98;6.57;;;31.40;26.10;;;;;;5073896;28;20056;-72
2021/03/29 11:41:24;;;;;;;9.98;6.80;;;30.80;25.00;;;;;;5072837;28;20025;-67
2021/03/29 11:43:50;;;;;;;18.02;6.70;;;30.90;24.40;;;;;;5073622;28;20032;-72
2021/03/29 11:46:16;;;;;;;10.32;6.43;;;31.70;26.20;;;;;;5074189;28;20037;-70
2021/03/29 11:48:42;;;;;;;8.57;5.93;;;32.20;49.40;;;;;;5074011;28;20033;-70
2021/03/29 11:51:08;;;;;;;9.65;6.13;;;32.70;44.60;;;;;;5072771;28;20157;-69
2021/03/29 11:53:35;;;;;;;10.45;6.53;;;32.90;24.40;;;;;;5073859;28;20108;-70
2021/03/29 11:56:02;;;;;;;12.82;6.95;;;33.00;24.30;;;;;;5073904;28;20424;-68
2021/03/29 11:58:28;;;;;;;8.23;5.72;;;33.00;23.60;;;;;;5074037;28;20107;-68
2021/03/29 12:01:05;;;;;;;13.73;7.00;;;32.90;24.50;;;;;;5072361;28;20024;-69
2021/03/29 12:06:27;;;;;;;9.88;6.35;;;;;;;;;;5044743;28;20045;-72
2021/03/29 12:09:10;;;;;;;11.90;6.93;;;31.10;48.70;;;;;;5073123;28;20086;-70
2021/03/29 12:11:58;;;;;;;10.15;6.70;;;30.20;44.30;;;;;;5073537;28;20028;-70
2021/03/29 12:14:27;;;;;;;10.35;6.00;;;31.40;25.30;;;;;;5071874;28;20102;-70
2021/03/29 12:16:53;;;;;;;10.07;6.45;;;;;;;;;;5071885;28;20028;-70
2021/03/29 12:19:19;;;;;;;9.13;6.38;;;30.50;47.10;;;;;;5073459;28;20028;-72
2021/03/29 12:21:52;;;;;;;11.05;6.53;;;31.10;25.80;;;;;;5073298;28;20074;-70
2021/03/29 12:24:23;;;;;;;9.93;6.07;;;30.80;25.40;;;;;;5073150;28;20372;-69
2021/03/29 12:26:49;;;;;;;12.02;8.18;;;31.20;32.90;;;;;;5072060;28;20549;-70
2021/03/29 12:29:19;;;;;;;12.10;7.78;;;32.00;25.00;;;;;;5073212;28;20040;-71
2021/03/29 12:31:46;;;;;;;9.90;6.22;;;32.70;26.40;;;;;;5073126;28;20060;-70
2021/03/29 12:34:13;;;;;;;14.52;8.63;;;33.00;24.80;;;;;;5072388;28;20028;-70
2021/03/29 12:36:48;;;;;;;42.28;24.75;;;33.90;25.10;;;;;;5072834;28;20147;-70
2021/03/29 12:39:24;;;;;;;25.58;18.05;;;33.90;24.50;;;;;;5071941;28;20025;-71
2021/03/29 12:41:56;;;;;;;12.55;4.30;;;34.60;24.20;;;;;;5073295;28;20072;-71
2021/03/29 12:44:22;;;;;;;44.60;6.88;;;34.50;24.40;;;;;;5073147;28;20031;-72
2021/03/29 12:46:53;;;;;;;9.02;4.53;;;32.40;23.50;;;;;;5073069;28;20032;-72
2021/03/29 12:49:19;;;;;;;7.45;4.43;;;;;;;;;;5072980;28;20024;-69
2021/03/29 12:51:51;;;;;;;7.88;4.45;;;34.40;22.80;;;;;;5071789;28;20074;-68
2021/03/29 12:54:21;;;;;;;5.53;4.40;;;33.50;23.00;;;;;;5073119;28;20025;-71
2021/03/29 12:56:48;;;;;;;12.18;7.68;;;;;;;;;;5073140;28;20082;-73
2021/03/29 12:59:14;;;;;;;15.00;8.05;;;;;;;;;;5072708;28;20107;-70
2021/03/29 13:01:42;;;;;;;8.88;4.80;;;;;;;;;;5071586;28;20067;-68
2021/03/29 13:04:15;;;;;;;18.30;10.57;;;;;;;;;;5072875;28;20028;-72
2021/03/29 13:06:48;;;;;;;9.52;7.65;;;;;;;;;;5071542;28;20392;-70